createdAt,value
2023-04-06T00:01:04.320Z,39.67
2023-04-06T00:03:33.552Z,40.47
2023-04-06T00:06:02.618Z,40.93
2023-04-06T00:08:31.620Z,47.97
2023-04-06T00:11:00.526Z,41.97
2023-04-06T00:13:29.472Z,44.93
2023-04-06T00:15:59.775Z,47.03
2023-04-06T00:18:29.032Z,48.93
2023-04-06T00:20:57.885Z,49.53
2023-04-06T00:23:26.867Z,48.93
2023-04-06T00:25:56.723Z,56.00
2023-04-06T00:28:27.336Z,55.33
2023-04-06T00:30:56.682Z,56.57
2023-04-06T00:33:27.137Z,53.87
2023-04-06T00:35:56.189Z,50.53
2023-04-06T00:58:09.957Z,57.20
2023-04-06T01:00:48.077Z,46.97
2023-04-06T01:03:35.468Z,47.27
2023-04-06T01:06:04.855Z,48.37
2023-04-06T01:08:39.275Z,60.70
2023-04-06T01:11:20.561Z,70.37
2023-04-06T01:13:52.862Z,79.87
2023-04-06T01:16:40.097Z,77.13
2023-04-06T01:19:15.457Z,55.07
2023-04-06T01:21:54.436Z,62.77
2023-04-06T01:24:33.793Z,55.53
2023-04-06T01:27:18.648Z,64.77
2023-04-06T01:30:03.011Z,56.27
2023-04-06T01:32:47.008Z,46.27
2023-04-06T01:35:20.877Z,47.50
2023-04-06T01:38:00.916Z,45.07
2023-04-06T01:40:49.844Z,48.90
2023-04-06T01:43:21.647Z,50.60
2023-04-06T01:46:11.026Z,54.67
2023-04-06T01:48:43.529Z,55.17
2023-04-06T01:51:21.555Z,58.53
2023-04-06T01:54:02.659Z,59.33
2023-04-06T01:57:08.371Z,51.23
2023-04-06T01:59:57.496Z,44.00
2023-04-06T02:02:50.220Z,45.00
2023-04-06T02:05:24.501Z,40.43
2023-04-06T02:07:55.513Z,44.57
2023-04-06T02:10:32.955Z,43.30
2023-04-06T02:13:07.867Z,50.27
2023-04-06T02:15:37.226Z,50.60
2023-04-06T02:18:06.365Z,62.47
2023-04-06T02:20:35.333Z,65.17
2023-04-06T02:23:04.299Z,51.80
2023-04-06T02:25:33.586Z,48.77
2023-04-06T02:28:02.562Z,52.63
2023-04-06T02:30:33.897Z,48.73
2023-04-06T02:33:03.342Z,47.07
2023-04-06T02:35:40.731Z,48.77
2023-04-06T02:38:10.085Z,54.87
2023-04-06T02:40:39.191Z,55.63
2023-04-06T02:43:19.371Z,54.23
2023-04-06T02:45:49.864Z,65.90
2023-04-06T02:48:38.411Z,56.30
2023-04-06T02:51:07.847Z,65.03
2023-04-06T02:53:37.919Z,56.77
2023-04-06T02:56:08.711Z,56.47
2023-04-06T02:58:51.424Z,56.93
2023-04-06T03:01:23.202Z,63.37
2023-04-06T03:03:58.589Z,71.97
2023-04-06T03:06:30.037Z,58.33
2023-04-06T03:09:17.490Z,60.27
2023-04-06T03:11:48.031Z,64.77
2023-04-06T03:14:18.979Z,69.80
2023-04-06T03:16:49.457Z,58.37
2023-04-06T03:19:22.535Z,62.83
2023-04-06T03:21:52.115Z,70.03
2023-04-06T03:24:22.849Z,65.03
2023-04-06T03:26:51.779Z,62.40
2023-04-06T03:29:21.039Z,68.03
2023-04-06T03:31:51.570Z,67.70
2023-04-06T03:34:36.883Z,67.93
2023-04-06T03:37:10.305Z,66.07
2023-04-06T03:39:46.495Z,66.80
2023-04-06T03:42:20.546Z,62.83
2023-04-06T03:45:09.024Z,66.57
2023-04-06T03:47:42.135Z,58.13
2023-04-06T03:50:12.287Z,64.93
2023-04-06T03:52:41.662Z,52.53
2023-04-06T03:55:11.379Z,56.87
2023-04-06T03:57:58.637Z,61.93
2023-04-06T04:00:27.755Z,61.63
2023-04-06T04:02:59.277Z,58.20
2023-04-06T04:05:28.445Z,54.37
2023-04-06T04:07:57.595Z,51.17
2023-04-06T04:10:29.284Z,48.40
2023-04-06T04:12:58.276Z,43.77
2023-04-06T04:15:27.544Z,42.60
2023-04-06T04:17:56.613Z,42.70
2023-04-06T04:20:26.996Z,45.57
2023-04-06T04:22:56.095Z,41.23
2023-04-06T04:25:26.078Z,42.87
2023-04-06T04:27:56.094Z,53.40
2023-04-06T04:30:26.028Z,42.97
2023-04-06T04:32:55.167Z,59.27
2023-04-06T04:35:27.206Z,47.47
2023-04-06T04:37:56.461Z,56.03
2023-04-06T04:40:25.599Z,57.00
2023-04-06T04:43:05.791Z,82.70
2023-04-06T04:45:36.869Z,50.00
2023-04-06T04:48:24.503Z,48.00
2023-04-06T04:50:59.858Z,48.17
2023-04-06T04:53:34.881Z,48.93
2023-04-06T04:56:12.135Z,52.27
2023-04-06T04:58:59.455Z,58.17
2023-04-06T05:01:38.032Z,50.37
2023-04-06T05:04:16.683Z,50.00
2023-04-06T05:06:47.114Z,53.50
2023-04-06T05:09:16.825Z,54.20
2023-04-06T05:11:46.122Z,61.67
2023-04-06T05:14:14.994Z,57.07
2023-04-06T05:16:44.087Z,59.47
2023-04-06T05:19:13.436Z,57.27
2023-04-06T05:21:47.807Z,64.80
2023-04-06T05:24:17.806Z,66.30
2023-04-06T05:26:48.870Z,65.53
2023-04-06T05:29:23.889Z,42.17
2023-04-06T05:31:54.304Z,35.40
2023-04-06T05:34:23.642Z,37.40
2023-04-06T05:36:54.954Z,38.47
2023-04-06T05:39:27.458Z,39.47
2023-04-06T05:41:56.992Z,40.37
2023-04-06T05:44:35.295Z,43.47
2023-04-06T05:47:14.683Z,38.07
2023-04-06T05:49:45.017Z,41.17
2023-04-06T05:52:22.485Z,43.03
2023-04-06T05:54:52.215Z,43.87
2023-04-06T05:57:21.315Z,47.60
2023-04-06T05:59:51.653Z,48.70
2023-04-06T06:02:22.272Z,45.13
2023-04-06T06:04:53.924Z,45.90
2023-04-06T06:07:24.449Z,44.80
2023-04-06T06:10:00.356Z,44.70
2023-04-06T06:12:34.228Z,43.77
2023-04-06T06:15:05.270Z,43.00
2023-04-06T06:17:40.127Z,39.37
2023-04-06T06:20:10.828Z,40.63
2023-04-06T06:22:42.099Z,40.23
2023-04-06T06:25:16.776Z,39.70
2023-04-06T06:27:47.884Z,43.77
2023-04-06T06:30:21.534Z,63.73
2023-04-06T06:32:53.081Z,39.07
2023-04-06T06:35:22.302Z,38.63
2023-04-06T06:37:58.254Z,37.97
2023-04-06T06:40:30.029Z,40.50
2023-04-06T06:43:00.875Z,38.13
2023-04-06T06:45:49.824Z,28.77
2023-04-06T06:48:18.793Z,27.50
2023-04-06T06:50:49.544Z,28.10
2023-04-06T06:53:25.993Z,30.70
2023-04-06T06:55:56.172Z,31.57
2023-04-06T06:58:25.942Z,30.33
2023-04-06T07:00:59.368Z,26.77
2023-04-06T07:03:32.097Z,29.07
2023-04-06T07:06:02.325Z,28.57
2023-04-06T07:08:39.745Z,30.33
2023-04-06T07:11:08.685Z,38.03
2023-04-06T07:13:37.587Z,59.70
2023-04-06T07:16:11.235Z,79.33
2023-04-06T07:18:40.609Z,33.27
2023-04-06T07:21:09.673Z,34.27
2023-04-06T07:23:40.378Z,29.47
2023-04-06T07:26:09.688Z,32.33
2023-04-06T07:28:39.827Z,29.23
2023-04-06T07:31:08.995Z,52.30
2023-04-06T07:33:39.053Z,35.33
2023-04-06T07:36:13.297Z,36.63
2023-04-06T07:38:49.417Z,39.20
2023-04-06T07:41:19.772Z,33.03
2023-04-06T07:43:48.883Z,46.37
2023-04-06T07:46:17.872Z,34.33
2023-04-06T07:48:47.124Z,37.83
2023-04-06T07:51:17.616Z,40.20
2023-04-06T07:53:48.738Z,41.47
2023-04-06T07:56:17.866Z,53.30
2023-04-06T07:58:46.804Z,52.17
2023-04-06T08:01:16.235Z,39.17
2023-04-06T08:03:46.395Z,27.10
2023-04-06T08:06:21.744Z,90.60
2023-04-06T08:08:54.378Z,40.73
2023-04-06T08:11:23.332Z,37.30
2023-04-06T08:13:52.236Z,26.43
2023-04-06T08:16:21.693Z,92.90
2023-04-06T08:18:50.783Z,85.13
2023-04-06T08:21:19.897Z,49.67
2023-04-06T08:23:55.358Z,30.83
2023-04-06T08:26:34.704Z,38.63
2023-04-06T08:29:14.530Z,17.97
2023-04-06T08:31:46.062Z,20.40
2023-04-06T08:34:15.369Z,78.93
2023-04-06T08:36:44.513Z,41.27
2023-04-06T08:39:13.348Z,43.03
2023-04-06T08:41:46.192Z,92.63
2023-04-06T08:44:15.582Z,21.23
2023-04-06T08:46:44.514Z,121.47
2023-04-06T08:49:14.892Z,91.97
2023-04-06T08:51:45.103Z,67.43
2023-04-06T08:54:14.144Z,39.37
2023-04-06T08:56:46.756Z,29.07
2023-04-06T08:59:16.637Z,47.53
2023-04-06T09:01:47.552Z,20.33
2023-04-06T09:04:17.295Z,33.93
2023-04-06T09:06:47.136Z,49.20
2023-04-06T09:09:28.582Z,112.17
2023-04-06T09:12:09.005Z,32.60
2023-04-06T09:14:46.567Z,42.00
2023-04-06T09:17:23.734Z,25.97
2023-04-06T09:19:57.004Z,32.87
2023-04-06T09:22:28.460Z,129.03
2023-04-06T09:24:57.700Z,68.70
2023-04-06T09:27:38.290Z,51.50
2023-04-06T09:30:26.143Z,25.77
2023-04-06T09:32:57.194Z,17.77
2023-04-06T09:35:27.705Z,56.57
2023-04-06T09:37:57.691Z,140.80
2023-04-06T09:40:26.722Z,34.40
2023-04-06T09:42:58.800Z,85.87
2023-04-06T09:45:29.486Z,78.60
2023-04-06T09:47:59.669Z,16.97
2023-04-06T09:50:30.183Z,40.77
2023-04-06T09:53:02.658Z,39.47
2023-04-06T09:55:37.381Z,34.20
2023-04-06T09:58:12.021Z,21.07
2023-04-06T10:00:50.216Z,10.97
2023-04-06T10:03:34.034Z,15.57
2023-04-06T10:06:07.824Z,18.50
2023-04-06T10:08:41.648Z,28.90
2023-04-06T10:11:11.754Z,17.93
2023-04-06T10:13:43.318Z,27.97
2023-04-06T10:16:12.905Z,136.53
2023-04-06T10:18:44.184Z,24.97
2023-04-06T10:21:16.865Z,17.83
2023-04-06T10:23:50.842Z,23.83
2023-04-06T10:26:22.601Z,12.03
2023-04-06T10:28:53.374Z,11.97
2023-04-06T10:31:28.636Z,12.57
2023-04-06T10:33:58.740Z,12.83
2023-04-06T10:36:28.969Z,18.03
2023-04-06T10:39:00.138Z,28.80
2023-04-06T10:41:35.996Z,16.80
2023-04-06T10:44:06.869Z,15.33
2023-04-06T10:46:36.733Z,15.27
2023-04-06T10:49:15.385Z,14.80
2023-04-06T10:51:44.522Z,19.17
2023-04-06T10:54:14.971Z,24.63
2023-04-06T10:56:43.917Z,18.40
2023-04-06T10:59:14.443Z,36.33
2023-04-06T11:01:47.939Z,27.43
2023-04-06T11:04:19.603Z,29.83
2023-04-06T11:06:51.221Z,22.57
2023-04-06T11:09:28.310Z,24.73
2023-04-06T11:11:58.157Z,25.67
2023-04-06T11:14:28.820Z,33.63
2023-04-06T11:16:58.046Z,37.73
2023-04-06T11:19:27.581Z,19.63
2023-04-06T11:21:57.529Z,17.67
2023-04-06T11:24:28.447Z,29.80
2023-04-06T11:26:59.601Z,25.43
2023-04-06T11:29:32.947Z,29.50
2023-04-06T11:32:03.326Z,26.27
2023-04-06T11:34:36.766Z,31.70
2023-04-06T11:37:09.415Z,27.73
2023-04-06T11:39:41.878Z,21.20
2023-04-06T11:42:11.183Z,34.53
2023-04-06T11:44:43.934Z,26.20
2023-04-06T11:47:13.767Z,23.20
2023-04-06T11:49:45.909Z,18.37
2023-04-06T11:52:18.723Z,39.07
2023-04-06T11:54:48.695Z,26.97
2023-04-06T11:57:18.921Z,19.67
2023-04-06T11:59:49.891Z,43.23
2023-04-06T12:02:19.050Z,30.13
2023-04-06T12:04:48.442Z,28.17
2023-04-06T12:07:17.607Z,38.17
2023-04-06T12:09:46.606Z,44.73
2023-04-06T12:12:15.623Z,30.93
2023-04-06T12:14:44.530Z,22.33
2023-04-06T12:17:14.973Z,24.20
2023-04-06T12:19:44.089Z,22.10
2023-04-06T12:22:13.094Z,32.80
2023-04-06T12:24:42.089Z,21.30
2023-04-06T12:27:12.696Z,16.33
2023-04-06T12:29:41.908Z,17.57
2023-04-06T12:32:10.989Z,13.30
2023-04-06T12:34:41.498Z,13.80
2023-04-06T12:37:10.598Z,19.70
2023-04-06T12:39:39.531Z,13.70
2023-04-06T12:42:08.643Z,18.67
2023-04-06T12:44:37.630Z,14.97
2023-04-06T12:47:08.689Z,5.80
2023-04-06T12:49:37.701Z,5.97
2023-04-06T12:52:08.276Z,7.07
2023-04-06T12:54:37.487Z,6.63
2023-04-06T12:57:06.438Z,6.80
2023-04-06T12:59:36.683Z,6.33
2023-04-06T13:02:06.752Z,7.03
2023-04-06T13:04:36.108Z,6.63
2023-04-06T13:07:05.439Z,9.03
2023-04-06T13:09:35.927Z,8.20
2023-04-06T13:12:06.869Z,9.73
2023-04-06T13:14:38.216Z,7.97
2023-04-06T13:17:07.653Z,7.23
2023-04-06T13:19:36.593Z,6.97
2023-04-06T13:22:05.544Z,5.43
2023-04-06T13:24:35.993Z,8.03
2023-04-06T13:27:05.035Z,8.13
2023-04-06T13:29:35.410Z,5.37
2023-04-06T13:32:04.962Z,6.07
2023-04-06T13:34:34.046Z,11.13
2023-04-06T13:37:02.976Z,33.43
2023-04-06T13:39:32.061Z,12.77
2023-04-06T13:42:03.946Z,16.60
2023-04-06T13:44:33.477Z,22.77
2023-04-06T13:47:02.510Z,11.33
2023-04-06T13:49:31.465Z,25.03
2023-04-06T13:52:00.732Z,79.03
2023-04-06T13:54:30.691Z,36.60
2023-04-06T13:56:59.794Z,43.37
2023-04-06T13:59:35.034Z,17.27
2023-04-06T14:02:04.441Z,42.77
2023-04-06T14:04:34.106Z,40.53
2023-04-06T14:07:03.871Z,33.30
2023-04-06T14:09:33.297Z,47.57
2023-04-06T14:12:02.273Z,28.27
2023-04-06T14:14:32.630Z,34.27
2023-04-06T14:17:01.738Z,17.27
2023-04-06T14:19:31.205Z,15.97
2023-04-06T14:22:01.292Z,17.83
2023-04-06T14:24:30.821Z,23.80
2023-04-06T14:26:59.939Z,16.43
2023-04-06T14:29:28.911Z,17.97
2023-04-06T14:32:01.192Z,19.40
2023-04-06T14:34:30.332Z,19.00
2023-04-06T14:37:00.188Z,23.57
2023-04-06T14:39:29.087Z,24.17
2023-04-06T14:41:58.325Z,31.93
2023-04-06T14:44:27.811Z,33.73
2023-04-06T14:46:56.882Z,30.67
2023-04-06T14:49:27.400Z,20.20
2023-04-06T14:51:56.468Z,24.97
2023-04-06T14:54:25.994Z,22.33
2023-04-06T14:56:54.980Z,25.87
2023-04-06T14:59:23.960Z,40.33
2023-04-06T15:01:53.220Z,31.63
2023-04-06T15:04:22.596Z,27.00
2023-04-06T15:06:53.073Z,22.60
2023-04-06T15:09:22.085Z,23.27
2023-04-06T15:11:51.072Z,15.67
2023-04-06T15:14:19.970Z,19.50
2023-04-06T15:16:49.014Z,17.03
2023-04-06T15:19:17.953Z,18.10
2023-04-06T15:21:47.016Z,31.93
2023-04-06T15:24:17.782Z,38.87
2023-04-06T15:26:47.297Z,50.57
2023-04-06T15:29:16.551Z,40.07
2023-04-06T15:31:45.622Z,37.07
2023-04-06T15:34:14.960Z,35.87
2023-04-06T15:36:44.795Z,35.03
2023-04-06T15:39:14.999Z,23.80
2023-04-06T15:41:45.658Z,34.00
2023-04-06T15:44:15.500Z,31.63
2023-04-06T15:46:44.430Z,47.33
2023-04-06T15:49:13.351Z,32.90
2023-04-06T15:51:43.392Z,34.90
2023-04-06T15:54:12.387Z,39.27
2023-04-06T15:56:41.284Z,38.90
2023-04-06T15:59:11.833Z,36.40
2023-04-06T16:01:42.627Z,28.07
2023-04-06T16:04:12.648Z,23.90
2023-04-06T16:06:41.797Z,22.00
2023-04-06T16:09:10.752Z,21.97
2023-04-06T16:11:39.659Z,21.17
2023-04-06T16:14:09.427Z,36.23
2023-04-06T16:16:40.174Z,27.77
2023-04-06T16:19:09.159Z,30.03
2023-04-06T16:21:38.223Z,25.07
2023-04-06T16:24:08.882Z,33.30
2023-04-06T16:26:37.844Z,22.43
2023-04-06T16:29:06.779Z,24.37
2023-04-06T16:31:35.782Z,23.63
2023-04-06T16:34:06.359Z,28.90
2023-04-06T16:36:36.024Z,26.17
2023-04-06T16:39:05.209Z,26.83
2023-04-06T16:41:34.238Z,26.10
2023-04-06T16:44:03.449Z,25.47
2023-04-06T16:46:32.914Z,28.30
2023-04-06T16:49:02.565Z,26.23
2023-04-06T16:51:33.529Z,29.70
2023-04-06T16:54:03.204Z,29.23
2023-04-06T16:56:33.597Z,28.83
2023-04-06T16:59:02.527Z,31.10
2023-04-06T17:01:31.701Z,30.53
2023-04-06T17:04:00.917Z,31.07
2023-04-06T17:06:31.825Z,31.47
2023-04-06T17:09:01.130Z,31.33
2023-04-06T17:11:39.854Z,30.07
2023-04-06T17:14:15.601Z,33.13
2023-04-06T17:16:45.065Z,32.70
2023-04-06T17:19:14.271Z,34.53
2023-04-06T17:21:44.834Z,39.37
2023-04-06T17:24:13.823Z,42.40
2023-04-06T17:26:42.690Z,32.43
2023-04-06T17:29:11.735Z,34.33
2023-04-06T17:31:40.738Z,33.80
2023-04-06T17:34:10.742Z,45.13
2023-04-06T17:36:39.710Z,47.87
2023-04-06T17:39:11.681Z,47.60
2023-04-06T17:41:41.136Z,44.57
2023-04-06T17:44:09.957Z,35.37
2023-04-06T17:46:38.933Z,35.47
2023-04-06T17:49:10.224Z,44.90
2023-04-06T17:51:39.140Z,63.40
2023-04-06T17:54:09.951Z,85.20
2023-04-06T17:56:39.180Z,84.47
2023-04-06T17:59:10.704Z,80.10
2023-04-06T18:01:41.456Z,66.83
2023-04-06T18:04:10.759Z,61.57
2023-04-06T18:06:39.752Z,87.13
2023-04-06T18:09:10.583Z,79.93
2023-04-06T18:11:40.427Z,52.37
2023-04-06T18:14:11.348Z,38.77
2023-04-06T18:16:41.226Z,44.20
2023-04-06T18:19:11.349Z,54.13
2023-04-06T18:21:40.488Z,45.50
2023-04-06T18:24:18.807Z,38.83
2023-04-06T18:26:52.477Z,39.23
2023-04-06T18:29:22.293Z,35.90
2023-04-06T18:31:55.089Z,31.20
2023-04-06T18:34:24.702Z,34.33
2023-04-06T18:36:53.747Z,29.97
2023-04-06T18:39:25.400Z,29.60
2023-04-06T18:41:59.193Z,27.20
2023-04-06T18:44:28.375Z,27.37
2023-04-06T18:46:57.504Z,25.57
2023-04-06T18:49:26.621Z,25.37
2023-04-06T18:51:57.928Z,31.73
2023-04-06T18:54:53.799Z,27.23
2023-04-06T18:57:23.788Z,25.80
2023-04-06T18:59:52.718Z,32.83
2023-04-06T19:02:21.897Z,32.77
2023-04-06T19:04:51.001Z,32.00
2023-04-06T19:07:20.056Z,33.73
2023-04-06T19:09:50.748Z,33.13
2023-04-06T19:12:19.818Z,27.73
2023-04-06T19:14:51.849Z,30.33
2023-04-06T19:17:21.358Z,33.93
2023-04-06T19:19:50.329Z,37.60
2023-04-06T19:22:19.408Z,32.17
2023-04-06T19:24:52.020Z,43.63
2023-04-06T19:27:21.033Z,28.87
2023-04-06T19:29:49.913Z,36.97
2023-04-06T19:32:19.372Z,34.57
2023-04-06T19:34:48.433Z,35.80
2023-04-06T19:37:26.641Z,31.93
2023-04-06T19:39:57.659Z,36.43
2023-04-06T19:42:32.682Z,31.90
2023-04-06T19:45:02.182Z,28.03
2023-04-06T19:47:31.248Z,29.63
2023-04-06T19:50:00.233Z,27.37
2023-04-06T19:52:30.236Z,29.00
2023-04-06T19:55:02.482Z,30.70
2023-04-06T19:57:34.831Z,34.30
2023-04-06T20:00:05.172Z,32.00
2023-04-06T20:02:38.860Z,32.03
2023-04-06T20:05:26.350Z,30.83
2023-04-06T20:07:55.659Z,31.23
2023-04-06T20:10:26.239Z,33.33
2023-04-06T20:12:55.570Z,30.90
2023-04-06T20:15:24.594Z,29.97
2023-04-06T20:17:53.538Z,29.90
2023-04-06T20:20:22.848Z,28.23
2023-04-06T20:22:51.780Z,36.07
2023-04-06T20:25:22.173Z,40.07
2023-04-06T20:27:54.665Z,38.87
2023-04-06T20:30:23.821Z,37.27
2023-04-06T20:32:52.715Z,45.93
2023-04-06T20:35:21.795Z,44.23
2023-04-06T20:37:51.297Z,43.03
2023-04-06T20:40:21.311Z,46.13
2023-04-06T20:42:52.420Z,53.20
2023-04-06T20:45:21.668Z,58.97
2023-04-06T20:47:58.071Z,61.33
2023-04-06T20:50:27.235Z,74.83
2023-04-06T20:52:56.184Z,67.53
2023-04-06T20:55:25.654Z,79.93
2023-04-06T20:57:56.913Z,62.73
2023-04-06T21:00:26.179Z,63.37
2023-04-06T21:02:55.331Z,80.10
2023-04-06T21:05:24.768Z,62.23
2023-04-06T21:07:53.702Z,45.17
2023-04-06T21:10:29.554Z,45.23
2023-04-06T21:13:00.144Z,42.93
2023-04-06T21:15:29.181Z,42.40
2023-04-06T21:17:58.309Z,41.30
2023-04-06T21:20:27.246Z,42.03
2023-04-06T21:22:56.311Z,40.53
2023-04-06T21:25:25.410Z,35.67
2023-04-06T21:27:54.724Z,36.03
2023-04-06T21:30:25.180Z,38.77
2023-04-06T21:32:54.773Z,33.83
2023-04-06T21:35:24.362Z,32.30
2023-04-06T21:37:53.629Z,33.33
2023-04-06T21:40:22.795Z,32.73
2023-04-06T21:42:51.830Z,32.90
2023-04-06T21:45:22.786Z,34.50
2023-04-06T21:47:53.472Z,33.00
2023-04-06T21:50:27.296Z,32.13
2023-04-06T21:52:56.776Z,34.83
2023-04-06T21:55:25.775Z,35.37
2023-04-06T21:57:54.916Z,38.50
2023-04-06T22:00:23.928Z,35.40
2023-04-06T22:02:54.798Z,33.20
2023-04-06T22:05:23.974Z,33.83
2023-04-06T22:07:53.717Z,35.43
2023-04-06T22:10:22.846Z,34.80
2023-04-06T22:12:52.050Z,38.87
2023-04-06T22:15:21.049Z,45.27
2023-04-06T22:17:50.263Z,47.50
2023-04-06T22:20:20.914Z,52.47
2023-04-06T22:22:49.980Z,55.47
2023-04-06T22:25:19.070Z,36.20
2023-04-06T22:27:48.080Z,33.90
2023-04-06T22:30:17.468Z,33.77
2023-04-06T22:32:46.682Z,33.67
2023-04-06T22:35:15.758Z,34.37
2023-04-06T22:37:46.312Z,32.70
2023-04-06T22:40:15.760Z,33.30
2023-04-06T22:42:44.743Z,34.07
2023-04-06T22:45:13.931Z,36.43
2023-04-06T22:47:43.872Z,35.93
2023-04-06T22:50:13.513Z,38.40
2023-04-06T22:52:42.536Z,35.00
2023-04-06T22:55:13.025Z,36.13
2023-04-06T22:57:42.108Z,37.77
2023-04-06T23:00:12.202Z,36.30
2023-04-06T23:02:41.238Z,36.27
2023-04-06T23:05:11.386Z,33.50
2023-04-06T23:07:40.424Z,31.73
2023-04-06T23:10:10.081Z,31.30
2023-04-06T23:12:59.165Z,38.17
2023-04-06T23:15:28.073Z,33.10
2023-04-06T23:17:57.201Z,39.77
2023-04-06T23:20:26.241Z,34.87
2023-04-06T23:22:55.315Z,39.17
2023-04-06T23:25:43.280Z,36.97
2023-04-06T23:28:13.677Z,32.53
2023-04-06T23:30:42.812Z,35.30
2023-04-06T23:33:11.796Z,38.33
2023-04-06T23:35:40.964Z,37.47
2023-04-06T23:38:28.282Z,35.83
2023-04-06T23:40:57.306Z,31.20
2023-04-06T23:43:27.752Z,28.60
2023-04-06T23:45:56.986Z,28.47
2023-04-06T23:48:25.935Z,28.80
2023-04-06T23:50:54.822Z,36.67
2023-04-06T23:53:23.794Z,29.63
2023-04-06T23:55:52.851Z,27.13
2023-04-06T23:58:21.782Z,29.70
